AirNav   Pilot Hours Calculator
 
 1139 users online  

0PA1 Phoenix Technologies Heliport
Norristown, Pennsylvania, USA

GOING TO NORRISTOWN?


FAA INFORMATION EFFECTIVE 30 JANUARY 2020

Location

FAA Identifier: 0PA1
Lat/Long: 40-07-05.3850N 075-24-04.6690W
40-07.089750N 075-24.077817W
40.1181625,-75.4012969
(estimated)
Elevation: 252 ft. / 77 m (estimated)
Variation: 11W (1985)
From city: 2 miles SW of NORRISTOWN, PA
Time zone: UTC -5 (UTC -4 during Daylight Saving Time)
Zip code: 19403

Heliport Operations

Heliport use: Private use. Permission required prior to landing
Activation date: 08/1991
Control tower: no
ARTCC: NEW YORK CENTER
FSS: WILLIAMSPORT FLIGHT SERVICE STATION
Attendance: MON-FRI 0800-2230
Wind indicator: lighted
Segmented circle: no
Lights: FOR PERIMETER LGTS CALL 215-469-6085.

Heliport Communications

WX AWOS-3 at LOM (6 nm E): 118.925 (215-646-1068)
WX ASOS at PTW (10 nm NW): 119.425 (610-495-0823)
WX AWOS-3T at OQN (11 nm SW): 121.4 ((610) 692-6190)
WX ASOS at PHL (17 nm SE): PHONE 215-492-9617
WX AWOS-3 at CKZ (17 nm N): 126.325 (215-257-7291)
WX ASOS at PNE (18 nm E): 121.15 (215-677-0146)
WX ASOS at DYL (18 nm NE): 118.875 (215-345-0392)
WX AWOS-3 at UKT (19 nm N): 119.475 (215-538-7610)

Nearby radio navigation aids

VOR radial/distance  VOR name  Freq  Var
PTWr140/9.6POTTSTOWN VORTAC116.5009W
MXEr055/17.2MODENA VORTAC113.2009W
ARDr260/24.0YARDLEY VOR/DME108.2010W
DQOr030/28.0DUPONT VORTAC114.0010W
OODr001/29.3WOODSTOWN VORTAC112.8010W
ETXr164/30.6EAST TEXAS VOR/DME110.2009W
FJCr186/36.6ALLENTOWN VORTAC117.5010W
GXUr292/37.5MC GUIRE VORTAC110.6012W

 
NDB name  Hdg/Dist  Freq  Var  ID
AMBLER277/5.327512WING .. -. --.

Heliport Services

Runway Information

Helipad H1

Dimensions: 80 x 80 ft. / 24 x 24 m
Surface: asphalt
Runway edge lights: PERI
Latitude: 40-07.089750N
Longitude: 075-24.077817W
Elevation: 252.0 ft.
Traffic pattern: leftleft

Heliport Ownership and Management from official FAA records

Ownership: Privately-owned
Owner: PHOENIX TECHNOLOGIES, INC.
2621 VAN BUREN AVE
NORRISTOWN, PA 19403
Phone 215-650-3100
Manager: ROBERT ZAWACKI
CHESTNUT HILL RD, STAR ROUTE
POTTSTOWN, PA 19464
Phone 215-469-6085

Heliport Operational Statistics

Aircraft based on the field: 1
Helicopters: 1
    

Additional Remarks

FOR CD CTC PHILADELPHIA APCH AT 800-354-9884.

Instrument Procedures

There are no published instrument procedures at 0PA1.

Some nearby airports with instrument procedures:

N10 - Perkiomen Valley Airport (5 nm N)
KLOM - Wings Field Airport (6 nm E)
KPTW - Heritage Field Airport (10 nm NW)
KOQN - Brandywine Regional Airport (11 nm SW)
N47 - Pottstown Municipal Airport (15 nm NW)
KPHL - Philadelphia International Airport (17 nm SE)
KCKZ - Pennridge Airport (17 nm N)
KPNE - Northeast Philadelphia Airport (18 nm E)
KDYL - Doylestown Airport (18 nm NE)
KUKT - Quakertown Airport (19 nm N)
 
Loc | Ops | Rwys | IFR | FBO | Links
Com | Nav | Svcs | Stats | Notes
Area around 0PA1 (Phoenix Technologies Heliport)
 
Road maps at: MapQuest Bing Google
 
Aerial photo
No photo
 
Sectional chart

 
Airport distance calculator
Flying to Phoenix Technologies Heliport? Find the distance to fly.

From to 0PA1

Sunrise and sunset
Times for 26-Feb-2020
 Local
(UTC-5)
 Zulu
(UTC)
Morning civil twilight06:1311:13
Sunrise06:4111:41
Sunset17:4922:49
Evening civil twilight18:1623:16

Current date and time
Zulu (UTC)  26-Feb-2020 13:41:41
Local (UTC-5)  26-Feb-2020 08:41:41
 
METAR
KLOM 
6nm E 
261315Z AUTO 11006KT 2 1/2SM BR OVC002 08/08 A2993 RMK AO2 T00750075
KPTW 
10nm NW 
261323Z AUTO VRB03KT 3SM BR OVC003 07/07 A2994 RMK AO2 T00670067
KOQN 
11nm SW 
261315Z AUTO 11003KT 1 1/4SM BR OVC002 07/07 A2993 RMK AO2
KPHL 
17nm SE 
261254Z 09004KT 5SM BR OVC005 08/06 A2994 RMK AO2 SLP139 T00780061
KCKZ 
17nm N 
261315Z AUTO 09004KT M1/4SM FG OVC002 07/07 A2994 RMK AO2
KPNE 
18nm E 
261254Z 10007KT 1/2SM BR OVC003 09/07 A2995 RMK AO2 SFC VIS 2 1/2 SLP143 T00890072
KDYL 
18nm NE 
261303Z AUTO 00000KT 1/2SM FG VV002 08/07 A2992 RMK AO2 T00780067
KUKT 
19nm N 
261315Z AUTO 11006KT 1 1/2SM BR OVC002 07/07 A2993 RMK A01
TAF
KPHL 
17nm SE 
261130Z 2612/2718 08005KT 5SM -DZ BR OVC005 FM261700 10005KT 6SM BR OVC008 FM261900 09006KT 6SM BR OVC012 FM262200 09008KT 5SM -RADZ OVC008 FM270000 09008KT 5SM -RADZ OVC003 FM270300 10010G16KT 2SM RA OVC003 FM270700 24013G24KT 2SM RA OVC008 FM270900 26014G26KT P6SM BKN015 FM271200 26020G30KT P6SM SCT040
KPNE 
18nm E 
261130Z 2612/2712 05005KT 5SM -DZ BR OVC004 FM261700 10005KT 6SM BR OVC008 FM262200 09008KT 5SM -RADZ OVC003 FM270100 09008KT 5SM -RADZ OVC003 FM270400 10010G18KT 1SM RA OVC003 FM270700 24013G24KT 2SM RA OVC008 FM271000 26015G26KT P6SM OVC015
NOTAMs
Click for the latest NOTAMs
NOTAMs are issued by the DoD/FAA and will open in a separate window not controlled by AirNav.

 

 
 

Would you like to see your business listed on this page?

 If your business provides an interesting product or service to pilots, flight crews, aircraft, or users of the Phoenix Technologies Heliport, you should consider listing it here.  To start the listing process, click on the button below
 
Add a business
 

Other Pages about Phoenix Technologies Heliport

Update a link
 
Copyright © AirNav, LLC. All rights reserved. Privacy Policy  Contact